Time;durP1;ratioP1;P1;durP2;ratioP2;P2;SDS_P1;SDS_P2;PMS_P1;PMS_P2;Temp;Humidity;BMP_temperature;BMP_pressure;BME280_temperature;BME280_humidity;BME280_pressure;Samples;Min_cycle;Max_cycle;Signal;HPM_P1;HPM_P2
2023/03/09 00:04:41;;;;;;;2.55;2.35;;;;;;;19.20;31.26;98828.84;16118013;19;130119;-40
2023/03/09 00:10:04;;;;;;;1.70;1.60;;;;;;;19.17;30.79;98815.59;16118753;19;129596;-40
2023/03/09 00:15:25;;;;;;;1.83;1.73;;;;;;;19.11;31.15;98830.63;16118709;19;129842;-41
2023/03/09 00:20:48;;;;;;;7.25;1.80;;;;;;;19.07;31.24;98895.00;16123147;19;130793;-41
2023/03/09 00:26:09;;;;;;;3.20;2.60;;;;;;;19.01;30.88;98961.88;16119839;19;130536;-42
2023/03/09 00:31:31;;;;;;;2.65;2.45;;;;;;;18.93;31.03;98971.66;16118208;19;130527;-41
2023/03/09 00:36:53;;;;;;;2.83;2.63;;;;;;;18.87;30.79;98997.75;16119505;19;130137;-41
2023/03/09 00:42:15;;;;;;;3.13;2.90;;;;;;;18.82;30.82;98995.06;16120741;19;129718;-41
2023/03/09 00:47:37;;;;;;;3.35;3.05;;;;;;;18.77;30.85;99013.41;16119014;19;129419;-40
2023/03/09 00:52:59;;;;;;;3.00;2.80;;;;;;;18.74;30.94;99019.50;16117469;19;130108;-40
2023/03/09 00:58:21;;;;;;;2.45;2.25;;;;;;;18.72;30.79;99024.50;16119889;19;131851;-42
2023/03/09 01:03:43;;;;;;;2.53;1.77;;;;;;;18.69;30.76;99036.19;16117736;19;132785;-40
2023/03/09 01:09:05;;;;;;;1.80;1.70;;;;;;;18.67;30.62;99032.91;16114963;19;130079;-43
2023/03/09 01:14:27;;;;;;;2.50;2.30;;;;;;;18.65;30.93;99051.75;16115346;19;129307;-41
2023/03/09 01:19:49;;;;;;;1.98;1.80;;;;;;;18.62;30.80;99052.31;16113803;19;130627;-43
2023/03/09 01:25:11;;;;;;;1.60;1.50;;;;;;;18.58;30.70;99046.56;16117688;19;135210;-40
2023/03/09 01:30:32;;;;;;;1.65;1.55;;;;;;;18.55;31.19;99058.19;16115947;19;129468;-40
2023/03/09 01:35:54;;;;;;;1.75;1.65;;;;;;;18.52;31.08;99069.88;16115591;19;130958;-42
2023/03/09 01:41:18;;;;;;;1.70;1.60;;;;;;;18.50;30.78;99087.88;16115900;19;129602;-40
2023/03/09 01:46:49;;;;;;;2.08;1.73;;;;;;;18.49;31.05;99102.84;16115384;19;130180;-42
2023/03/09 01:52:34;;;;;;;2.15;1.95;;;;;;;18.44;30.73;99112.03;16114944;19;130423;-42
2023/03/09 01:58:08;;;;;;;2.13;1.90;;;;;;;18.43;31.11;99108.44;16111113;19;131216;-40
2023/03/09 02:03:35;;;;;;;2.30;2.10;;;;;;;18.36;30.84;99105.13;16114338;19;129291;-42
2023/03/09 02:09:27;;;;;;;2.85;2.20;;;;;;;18.33;30.90;99094.66;16113935;19;130168;-40
2023/03/09 02:14:50;;;;;;;2.10;1.90;;;;;;;18.29;30.77;99088.03;16116187;19;129905;-41
2023/03/09 02:20:29;;;;;;;1.75;1.65;;;;;;;18.29;30.91;99097.16;16115615;19;130511;-41
2023/03/09 02:26:03;;;;;;;2.92;1.38;;;;;;;18.25;31.20;99109.94;16114545;19;129222;-41
2023/03/09 02:31:26;;;;;;;1.70;1.60;;;;;;;18.24;31.28;99101.91;16119657;19;130929;-41
2023/03/09 02:36:47;;;;;;;1.35;1.25;;;;;;;18.23;30.90;99114.09;16130704;19;132554;-41
2023/03/09 02:42:09;;;;;;;1.85;1.30;;;;;;;18.20;31.34;99112.72;16127705;19;132156;-42
2023/03/09 02:47:31;;;;;;;1.50;1.40;;;;;;;18.18;31.28;99111.38;16120917;19;131005;-40
2023/03/09 02:52:53;;;;;;;1.60;1.33;;;;;;;18.15;31.11;99108.06;16130009;19;129398;-43
2023/03/09 02:58:15;;;;;;;1.52;1.42;;;;;;;18.14;31.38;99111.94;16127758;19;129492;-41
2023/03/09 03:03:37;;;;;;;1.40;1.30;;;;;;;18.11;31.01;99120.81;16121274;19;131136;-41
2023/03/09 03:08:58;;;;;;;1.02;0.93;;;;;;;18.11;31.37;99131.88;16125121;19;130064;-40
2023/03/09 03:14:20;;;;;;;1.30;1.20;;;;;;;18.08;31.04;99162.91;16126638;19;129379;-41
2023/03/09 03:19:42;;;;;;;1.45;1.15;;;;;;;18.07;31.44;99164.03;16126646;19;129528;-42
2023/03/09 03:25:05;;;;;;;2.22;1.65;;;;;;;18.03;31.32;99157.38;16124074;19;131927;-41
2023/03/09 03:30:26;;;;;;;1.30;1.10;;;;;;;18.03;31.05;99159.34;16122456;19;130678;-41
2023/03/09 03:35:48;;;;;;;1.20;1.10;;;;;;;18.02;31.17;99161.28;16125541;19;131005;-41
2023/03/09 03:41:10;;;;;;;1.13;1.02;;;;;;;17.99;31.60;99157.13;16118357;19;131164;-43
2023/03/09 03:46:32;;;;;;;1.52;1.27;;;;;;;17.98;31.15;99165.72;16122587;19;130359;-43
2023/03/09 03:51:54;;;;;;;1.10;1.00;;;;;;;17.95;31.59;99177.38;16127060;19;131465;-41
2023/03/09 03:57:15;;;;;;;1.20;1.10;;;;;;;17.94;31.60;99181.25;16121574;19;132489;-40
2023/03/09 04:02:40;;;;;;;1.00;0.90;;;;;;;17.94;31.62;99186.78;16115300;19;129581;-41
2023/03/09 04:08:03;;;;;;;1.37;1.20;;;;;;;17.90;31.35;99199.50;16120039;19;129877;-42
2023/03/09 04:13:24;;;;;;;1.08;0.98;;;;;;;17.89;31.59;99211.69;16121108;19;129976;-41
2023/03/09 04:18:46;;;;;;;1.20;1.10;;;;;;;17.87;31.52;99224.97;16124652;19;130305;-41
2023/03/09 04:24:08;;;;;;;0.88;0.85;;;;;;;17.84;31.59;99227.22;16120502;19;131023;-42
2023/03/09 04:29:30;;;;;;;1.52;0.93;;;;;;;17.83;31.79;99231.09;16122815;19;129486;-42
2023/03/09 04:34:51;;;;;;;1.20;1.10;;;;;;;17.81;31.78;99241.59;16120980;19;131055;-42
2023/03/09 04:40:15;;;;;;;1.33;1.10;;;;;;;17.80;31.53;99242.72;16120212;19;130071;-40
2023/03/09 04:45:36;;;;;;;1.10;1.00;;;;;;;17.79;31.43;99257.66;16116134;19;131191;-41
2023/03/09 04:50:58;;;;;;;2.30;1.20;;;;;;;17.78;31.38;99269.00;16119498;19;129593;-41
2023/03/09 04:56:20;;;;;;;1.10;1.00;;;;;;;17.76;31.62;99263.72;16121906;19;129364;-42
2023/03/09 05:01:42;;;;;;;0.82;0.82;;;;;;;17.73;31.39;99272.59;16114095;19;129329;-41
2023/03/09 05:07:04;;;;;;;1.35;0.90;;;;;;;17.74;31.35;99287.25;16120681;19;129136;-43
2023/03/09 05:12:31;;;;;;;3.47;1.40;;;;;;;17.72;31.39;99303.31;16117311;19;130754;-43
2023/03/09 05:17:53;;;;;;;1.63;1.40;;;;;;;17.69;31.71;99301.94;16120401;19;130692;-40
2023/03/09 05:23:15;;;;;;;1.10;1.00;;;;;;;17.67;31.30;99321.56;16118799;19;129859;-42
2023/03/09 05:28:38;;;;;;;1.23;1.13;;;;;;;17.66;31.34;99324.59;16118174;19;131246;-42
2023/03/09 05:34:00;;;;;;;1.17;1.08;;;;;;;17.64;31.76;99326.81;16115693;19;129516;-41
2023/03/09 05:39:21;;;;;;;1.42;1.00;;;;;;;17.62;31.70;99323.50;16118201;19;131263;-40
2023/03/09 05:44:43;;;;;;;1.25;1.15;;;;;;;17.59;31.49;99330.41;16114993;19;131085;-40
2023/03/09 05:50:05;;;;;;;1.40;1.30;;;;;;;17.59;31.78;99352.53;16114791;19;132187;-42
2023/03/09 05:55:27;;;;;;;1.15;1.05;;;;;;;17.58;31.38;99363.91;16113708;19;129541;-40
2023/03/09 06:00:52;;;;;;;0.98;0.88;;;;;;;17.56;31.37;99371.63;16113084;19;130468;-40
2023/03/09 06:06:13;;;;;;;0.90;0.80;;;;;;;17.58;31.75;99378.53;16116735;19;129948;-42
2023/03/09 06:11:35;;;;;;;0.77;0.70;;;;;;;17.80;31.32;99375.47;16129023;19;134384;-40
2023/03/09 06:16:58;;;;;;;3.03;0.80;;;;;;;18.19;31.21;99387.03;16127526;19;131146;-43
2023/03/09 06:22:19;;;;;;;0.60;0.60;;;;;;;18.56;30.79;99397.72;16126556;19;129690;-41
2023/03/09 06:27:41;;;;;;;0.70;0.40;;;;;;;19.05;30.57;99390.56;16123833;19;129688;-41
2023/03/09 06:33:03;;;;;;;0.77;0.40;;;;;;;19.60;29.62;99395.16;16129330;19;130345;-41
2023/03/09 06:38:25;;;;;;;0.57;0.50;;;;;;;19.98;29.13;99403.72;16124442;19;129664;-41
2023/03/09 06:43:47;;;;;;;0.57;0.50;;;;;;;20.16;29.41;99426.34;16130953;19;130587;-41
2023/03/09 06:49:09;;;;;;;1.08;0.60;;;;;;;20.14;29.39;99432.16;16128623;19;131142;-40
2023/03/09 06:54:30;;;;;;;0.75;0.65;;;;;;;20.05;29.04;99444.22;16125263;19;132319;-43
2023/03/09 06:59:52;;;;;;;0.75;0.75;;;;;;;19.91;29.27;99455.97;16125739;19;130455;-47
2023/03/09 07:05:14;;;;;;;0.80;0.60;;;;;;;19.78;29.75;99468.56;16129597;19;129680;-49
2023/03/09 07:10:36;;;;;;;0.90;0.70;;;;;;;19.61;29.52;99468.97;16127875;19;130629;-50
2023/03/09 07:16:00;;;;;;;0.82;0.80;;;;;;;19.47;29.89;99492.91;16127036;19;129751;-47
2023/03/09 07:21:25;;;;;;;1.02;0.90;;;;;;;19.31;30.04;99498.56;16126796;19;130851;-52
2023/03/09 07:26:48;;;;;;;2.90;1.05;;;;;;;19.16;29.92;99521.59;16128341;19;129845;-49
2023/03/09 07:32:10;;;;;;;1.58;1.00;;;;;;;19.03;30.11;99525.81;16126091;19;131236;-54
2023/03/09 07:37:31;;;;;;;1.42;0.82;;;;;;;18.91;30.23;99530.84;16126035;19;128915;-41
2023/03/09 07:42:53;;;;;;;2.80;0.70;;;;;;;18.82;30.17;99550.00;16128308;19;129542;-43
2023/03/09 07:48:15;;;;;;;1.90;0.70;;;;;;;18.74;30.47;99558.91;16128757;19;131098;-41
2023/03/09 07:53:39;;;;;;;1.33;0.85;;;;;;;18.65;30.39;99563.31;16126096;19;129003;-42
2023/03/09 07:59:01;;;;;;;2.75;0.70;;;;;;;18.57;30.58;99559.22;16125239;19;129399;-43
2023/03/09 08:04:22;;;;;;;0.77;0.50;;;;;;;18.63;31.06;99562.81;16124697;19;131242;-41
2023/03/09 08:09:44;;;;;;;0.55;0.40;;;;;;;18.80;30.75;99568.84;16124399;19;129228;-41
2023/03/09 08:15:07;;;;;;;1.38;0.50;;;;;;;18.99;30.92;99582.94;16123552;19;128983;-41
2023/03/09 08:20:28;;;;;;;0.52;0.35;;;;;;;19.16;30.41;99593.69;16124773;19;129436;-41
2023/03/09 08:25:54;;;;;;;1.08;0.30;;;;;;;19.29;30.65;99597.84;16121977;19;129609;-41
2023/03/09 08:31:18;;;;;;;0.40;0.30;;;;;;;19.36;30.07;99581.72;16124486;19;134794;-42
2023/03/09 08:36:41;;;;;;;0.40;0.40;;;;;;;19.38;30.38;99607.22;16122163;19;130422;-41
2023/03/09 08:42:03;;;;;;;0.28;0.28;;;;;;;19.36;30.31;99619.72;16123578;19;129361;-44
2023/03/09 08:47:25;;;;;;;0.47;0.43;;;;;;;19.32;30.48;99613.88;16121667;19;130747;-45
2023/03/09 08:52:46;;;;;;;0.40;0.40;;;;;;;19.29;30.87;99631.13;16121071;19;129534;-46
2023/03/09 08:58:08;;;;;;;2.40;0.40;;;;;;;19.41;31.02;99632.75;16123096;19;129500;-43
2023/03/09 09:03:31;;;;;;;1.52;0.50;;;;;;;19.64;31.54;99662.59;16119487;19;129521;-43
2023/03/09 09:08:53;;;;;;;6.22;0.55;;;;;;;19.95;31.70;99670.75;16125429;19;129126;-41
2023/03/09 09:14:18;;;;;;;0.93;0.80;;;;;;;20.20;31.42;99677.31;16120288;19;129547;-43
2023/03/09 09:19:40;;;;;;;5.75;0.85;;;;;;;20.41;31.66;99674.41;16119304;19;129865;-41
2023/03/09 09:25:05;;;;;;;1.83;0.85;;;;;;;20.57;31.21;99675.13;16120513;19;129439;-43
2023/03/09 09:30:27;;;;;;;1.38;0.80;;;;;;;20.61;31.38;99676.19;16117262;19;130226;-40
2023/03/09 09:36:11;;;;;;;3.22;0.77;;;;;;;20.58;31.48;99669.25;16119080;19;129707;-46
2023/03/09 09:41:42;;;;;;;1.25;0.60;;;;;;;20.49;31.56;99661.84;16113990;19;130145;-42
2023/03/09 09:47:06;;;;;;;0.77;0.45;;;;;;;20.37;31.73;99665.81;16116976;19;132156;-42
2023/03/09 09:53:01;;;;;;;2.13;1.00;;;;;;;20.27;31.71;99661.16;16116340;19;131266;-40
2023/03/09 09:58:59;;;;;;;5.20;0.93;;;;;;;20.12;31.89;99664.84;16112995;19;130597;-40
2023/03/09 10:04:32;;;;;;;2.00;0.60;;;;;;;19.98;31.82;99663.81;16116039;19;129794;-40
2023/03/09 10:09:59;;;;;;;1.00;0.68;;;;;;;19.87;32.38;99663.03;16116601;19;130686;-40
2023/03/09 10:15:29;;;;;;;0.88;0.55;;;;;;;19.93;32.32;99673.00;16116261;19;129348;-42
2023/03/09 10:20:53;;;;;;;2.00;0.60;;;;;;;20.05;32.14;99678.25;16118317;19;129418;-44
2023/03/09 10:26:47;;;;;;;2.05;0.50;;;;;;;20.24;31.98;99660.91;16116282;19;129263;-40
2023/03/09 10:32:19;;;;;;;2.08;0.57;;;;;;;20.36;31.92;99661.41;16115840;19;130486;-41
2023/03/09 10:37:41;;;;;;;1.85;0.63;;;;;;;20.45;31.68;99656.88;16113122;19;130799;-41
2023/03/09 10:43:09;;;;;;;0.55;0.50;;;;;;;20.48;31.89;99671.31;16114801;19;129779;-41
2023/03/09 10:48:31;;;;;;;1.38;0.50;;;;;;;20.42;31.49;99651.88;16113120;19;136084;-43
2023/03/09 10:53:56;;;;;;;0.57;0.40;;;;;;;20.37;31.59;99656.66;16125336;19;129316;-44
2023/03/09 10:59:20;;;;;;;1.95;0.60;;;;;;;20.26;31.75;99645.63;16128697;19;129642;-41
2023/03/09 11:04:42;;;;;;;0.65;0.60;;;;;;;20.19;32.07;99644.28;16126214;19;129831;-49
2023/03/09 11:10:20;;;;;;;0.90;0.47;;;;;;;20.12;31.78;99653.75;16130115;19;130243;-42
2023/03/09 11:15:43;;;;;;;0.60;0.60;;;;;;;20.03;31.99;99640.78;16127112;19;130318;-40
2023/03/09 11:21:05;;;;;;;0.93;0.75;;;;;;;19.95;32.30;99640.22;16128210;19;130994;-43
2023/03/09 11:26:42;;;;;;;2.65;0.90;;;;;;;19.90;31.97;99653.31;16126413;19;130534;-42
2023/03/09 11:32:03;;;;;;;1.30;0.80;;;;;;;19.80;32.27;99634.78;16128723;19;130689;-45
2023/03/09 11:37:41;;;;;;;3.40;0.80;;;;;;;19.77;32.61;99640.91;16128078;19;129639;-41
2023/03/09 11:43:27;;;;;;;3.95;0.85;;;;;;;19.67;32.59;99630.66;16124934;19;129426;-42
2023/03/09 11:48:52;;;;;;;2.77;0.90;;;;;;;19.58;32.64;99622.09;16128807;19;131288;-43
2023/03/09 11:54:39;;;;;;;1.70;0.80;;;;;;;19.51;32.74;99611.31;16126193;19;129557;-41
2023/03/09 12:00:05;;;;;;;;;;;;;;;19.42;32.65;99596.38;16126435;19;129717;-42
2023/03/09 12:05:42;;;;;;;1.30;0.82;;;;;;;19.41;32.37;99602.22;16121972;19;129386;-45
2023/03/09 12:11:30;;;;;;;3.10;1.00;;;;;;;19.33;32.73;99593.38;16123843;19;129317;-44
2023/03/09 12:16:58;;;;;;;2.67;1.20;;;;;;;19.29;32.98;99591.44;16122598;19;129192;-43
2023/03/09 12:22:29;;;;;;;4.50;1.65;;;;;;;19.32;32.86;99600.03;16124146;19;128856;-41
2023/03/09 12:27:54;;;;;;;3.55;1.45;;;;;;;19.45;32.58;99606.06;16124028;19;131029;-42
2023/03/09 12:33:41;;;;;;;4.78;1.70;;;;;;;19.65;32.52;99610.69;16122485;19;130861;-42
2023/03/09 12:39:42;;;;;;;3.72;1.23;;;;;;;19.82;32.36;99588.13;16120799;19;130117;-41
2023/03/09 12:45:16;;;;;;;1.95;1.65;;;;;;;19.99;32.29;99615.53;16111990;19;130208;-42
2023/03/09 12:50:45;;;;;;;3.30;1.10;;;;;;;20.23;32.21;99573.19;16112268;19;129892;-46
2023/03/09 12:56:18;;;;;;;6.20;1.50;;;;;;;20.51;31.75;99582.66;16114402;19;130935;-45
2023/03/09 13:01:40;;;;;;;5.78;1.10;;;;;;;20.66;31.42;99566.94;16110067;19;129380;-42
2023/03/09 13:07:02;;;;;;;2.53;1.10;;;;;;;20.76;31.20;99561.31;16114353;19;129402;-45
2023/03/09 13:12:32;;;;;;;7.07;1.20;;;;;;;20.82;31.20;99548.19;16113634;19;131822;-40
2023/03/09 13:18:19;;;;;;;3.20;1.35;;;;;;;20.79;30.94;99537.66;16119021;19;131324;-43
2023/03/09 13:23:43;;;;;;;5.10;1.30;;;;;;;20.68;31.53;99521.06;16123153;19;131255;-44
2023/03/09 13:29:09;;;;;;;2.30;1.20;;;;;;;20.55;31.67;99505.94;16116467;19;129878;-40
2023/03/09 13:34:35;;;;;;;4.03;1.40;;;;;;;20.42;31.57;99501.06;16119912;19;133831;-40
2023/03/09 13:40:08;;;;;;;4.85;1.40;;;;;;;20.26;31.42;99492.03;16122158;19;130198;-42
2023/03/09 13:45:32;;;;;;;2.45;1.35;;;;;;;20.11;32.07;99484.69;16112153;19;130836;-40
2023/03/09 13:50:54;;;;;;;6.78;1.42;;;;;;;19.98;31.77;99486.97;16115433;19;132035;-41
2023/03/09 13:56:15;;;;;;;5.28;1.52;;;;;;;19.87;31.92;99479.88;16118902;19;133401;-41
2023/03/09 14:01:37;;;;;;;4.10;1.80;;;;;;;19.77;32.38;99474.41;16117722;19;129457;-41
2023/03/09 14:06:59;;;;;;;3.70;1.85;;;;;;;19.66;32.70;99468.09;16121301;19;129502;-41
2023/03/09 14:12:38;;;;;;;4.40;1.73;;;;;;;19.52;32.65;99437.41;16117434;19;129493;-42
2023/03/09 14:18:01;;;;;;;2.65;1.50;;;;;;;19.43;32.63;99498.19;16118193;19;129585;-41
2023/03/09 14:23:41;;;;;;;3.13;1.65;;;;;;;19.38;33.36;99463.00;16117298;19;129590;-40
2023/03/09 14:29:17;;;;;;;2.00;1.33;;;;;;;19.38;33.51;99454.69;16126447;19;129892;-41
2023/03/09 14:34:39;;;;;;;1.95;1.25;;;;;;;19.42;33.63;99457.72;16133188;19;129525;-40
2023/03/09 14:40:19;;;;;;;3.63;1.25;;;;;;;19.47;33.65;99451.31;16135011;19;130983;-40
2023/03/09 14:45:41;;;;;;;2.28;1.27;;;;;;;19.50;33.70;99431.31;16132058;19;129584;-40
2023/03/09 14:51:12;;;;;;;1.77;1.08;;;;;;;19.55;33.55;99428.53;16132230;19;130205;-43
2023/03/09 14:56:34;;;;;;;2.78;1.65;;;;;;;19.56;33.53;99419.09;16131249;19;129361;-40
2023/03/09 15:02:00;;;;;;;3.50;1.25;;;;;;;19.59;33.59;99407.38;16128846;19;134321;-43
2023/03/09 15:07:26;;;;;;;3.65;1.10;;;;;;;19.58;33.71;99410.47;16129671;19;130197;-40
2023/03/09 15:12:49;;;;;;;4.53;1.15;;;;;;;19.55;33.56;99395.22;16129752;19;129534;-40
2023/03/09 15:18:11;;;;;;;3.95;1.00;;;;;;;19.50;33.43;99381.38;16129778;19;130017;-42
2023/03/09 15:23:33;;;;;;;1.65;1.20;;;;;;;19.44;33.47;99369.50;16131316;19;130898;-40
2023/03/09 15:28:55;;;;;;;3.17;0.90;;;;;;;19.39;33.39;99364.00;16130010;19;130774;-40
2023/03/09 15:34:16;;;;;;;3.55;1.08;;;;;;;19.33;33.67;99352.13;16130284;19;129537;-40
2023/03/09 15:39:38;;;;;;;1.65;1.10;;;;;;;19.28;33.52;99340.25;16119451;19;130632;-40
2023/03/09 15:45:00;;;;;;;5.13;1.63;;;;;;;19.25;33.91;99329.75;16126027;19;129052;-40
2023/03/09 15:50:22;;;;;;;4.75;2.20;;;;;;;19.29;33.77;99331.66;16126856;19;129460;-41
2023/03/09 15:55:44;;;;;;;9.68;1.80;;;;;;;19.42;33.67;99307.16;16126075;19;129616;-40
2023/03/09 16:01:12;;;;;;;4.63;1.90;;;;;;;19.59;33.73;99296.44;16125110;19;129714;-40
2023/03/09 16:06:34;;;;;;;6.60;2.05;;;;;;;19.76;33.19;99284.88;16124881;19;129640;-40
2023/03/09 16:11:56;;;;;;;3.08;1.42;;;;;;;19.88;33.03;99278.94;16122535;19;131479;-40
2023/03/09 16:17:18;;;;;;;5.13;1.40;;;;;;;19.99;33.22;99277.72;16122578;19;129554;-40
2023/03/09 16:22:43;;;;;;;3.85;1.20;;;;;;;20.07;32.63;99258.75;16121765;19;129258;-40
2023/03/09 16:28:05;;;;;;;6.67;1.67;;;;;;;20.02;32.91;99253.28;16122686;19;130255;-40
2023/03/09 16:33:27;;;;;;;8.18;1.50;;;;;;;19.95;33.18;99246.09;16120897;19;129927;-42
2023/03/09 16:38:53;;;;;;;9.90;1.90;;;;;;;19.96;32.99;99244.97;16122314;19;129015;-40
2023/03/09 16:44:18;;;;;;;5.57;1.63;;;;;;;19.99;32.92;99235.22;16121294;19;129367;-40
2023/03/09 16:49:39;;;;;;;9.00;1.40;;;;;;;20.10;32.90;99233.16;16120151;19;129575;-41
2023/03/09 16:55:05;;;;;;;8.60;1.70;;;;;;;20.22;33.00;99218.88;16121028;19;130568;-43
2023/03/09 17:00:27;;;;;;;11.60;2.30;;;;;;;20.28;33.32;99217.66;16121048;19;131137;-41
2023/03/09 17:05:49;;;;;;;12.63;2.80;;;;;;;20.34;33.32;99207.28;16121330;19;129902;-43
2023/03/09 17:11:12;;;;;;;12.82;3.10;;;;;;;20.34;33.57;99198.97;16117928;19;132926;-40
2023/03/09 17:16:35;;;;;;;20.30;4.13;;;;;;;20.29;33.30;99195.16;16114015;19;130299;-41
2023/03/09 17:21:58;;;;;;;22.58;4.90;;;;;;;20.26;33.98;99198.53;16120808;19;129487;-40
2023/03/09 17:27:20;;;;;;;20.58;4.53;;;;;;;20.23;34.51;99198.31;16117090;19;131332;-42
2023/03/09 17:32:43;;;;;;;19.80;4.78;;;;;;;20.19;34.93;99191.69;16115014;19;131863;-41
2023/03/09 17:38:05;;;;;;;31.25;5.15;;;;;;;20.13;35.10;99193.72;16115310;19;130427;-44
2023/03/09 17:43:26;;;;;;;28.35;4.40;;;;;;;20.08;35.25;99183.50;16100124;19;134708;-39
2023/03/09 17:48:48;;;;;;;32.95;5.03;;;;;;;20.03;35.72;99182.75;16092717;19;131917;-40
2023/03/09 17:54:10;;;;;;;29.45;5.20;;;;;;;19.94;35.54;99188.91;16085059;19;134503;-42
2023/03/09 17:59:32;;;;;;;20.58;4.60;;;;;;;19.87;36.09;99182.91;16109273;19;129264;-42
2023/03/09 18:04:54;;;;;;;23.23;4.20;;;;;;;19.78;36.13;99185.53;16120159;19;129654;-44
2023/03/09 18:10:16;;;;;;;18.40;3.60;;;;;;;19.70;36.24;99180.63;16125146;19;134307;-42
2023/03/09 18:15:39;;;;;;;21.45;4.72;;;;;;;19.65;36.08;99178.75;16128868;19;129503;-42
2023/03/09 18:21:02;;;;;;;22.38;4.20;;;;;;;19.59;36.08;99157.72;16128681;19;129948;-40
2023/03/09 18:26:28;;;;;;;16.75;3.40;;;;;;;19.53;35.83;99145.88;16123512;19;129871;-42
2023/03/09 18:31:51;;;;;;;16.08;3.38;;;;;;;19.47;36.08;99138.75;16121064;19;129768;-43
2023/03/09 18:37:13;;;;;;;21.08;2.80;;;;;;;19.68;35.88;99131.00;16122906;19;130520;-42
2023/03/09 18:42:35;;;;;;;18.90;3.80;;;;;;;20.02;35.92;99111.72;16039613;19;155421;-46
2023/03/09 18:47:57;;;;;;;17.27;3.20;;;;;;;20.19;35.58;99097.28;16123789;19;131301;-46
2023/03/09 18:53:20;;;;;;;16.65;3.35;;;;;;;20.27;35.72;99096.59;16125871;19;130800;-43
2023/03/09 18:58:42;;;;;;;12.15;2.90;;;;;;;20.29;35.42;99088.78;16125951;19;129780;-43
2023/03/09 19:04:04;;;;;;;17.35;3.25;;;;;;;20.31;35.26;99066.28;16122053;19;130418;-46
2023/03/09 19:09:26;;;;;;;14.38;2.90;;;;;;;20.37;35.02;99051.19;16120362;19;130607;-45
2023/03/09 19:14:52;;;;;;;15.63;2.40;;;;;;;20.40;35.19;99045.03;16123966;19;129805;-44
2023/03/09 19:20:14;;;;;;;7.95;2.30;;;;;;;20.37;34.90;99026.19;16121930;19;129639;-43
2023/03/09 19:25:36;;;;;;;20.75;3.08;;;;;;;20.33;35.37;99025.13;16114934;19;130092;-43
2023/03/09 19:31:19;;;;;;;20.23;2.30;;;;;;;20.39;35.08;99010.84;16124456;19;129572;-44
2023/03/09 19:36:42;;;;;;;13.55;2.60;;;;;;;20.48;35.02;98999.06;16122315;19;130439;-42
2023/03/09 19:42:08;;;;;;;10.82;2.83;;;;;;;20.60;35.03;98991.06;16118454;19;131029;-43
2023/03/09 19:47:30;;;;;;;16.23;2.22;;;;;;;20.70;34.90;98976.13;16117936;19;130224;-45
2023/03/09 19:52:52;;;;;;;7.18;2.13;;;;;;;20.78;35.00;98974.63;16118940;19;130706;-50
2023/03/09 19:58:14;;;;;;;12.43;1.90;;;;;;;20.85;35.05;98961.16;16111064;19;130462;-47
2023/03/09 20:03:36;;;;;;;10.07;1.90;;;;;;;20.97;34.81;98939.22;16118673;19;134661;-49
2023/03/09 20:08:58;;;;;;;7.70;1.30;;;;;;;21.16;34.89;98933.53;16121759;19;129845;-44
2023/03/09 20:14:22;;;;;;;10.45;1.90;;;;;;;21.35;34.74;98915.84;16122706;19;131540;-42
2023/03/09 20:19:44;;;;;;;9.20;2.10;;;;;;;21.49;35.09;98911.09;16116460;19;130155;-45
2023/03/09 20:25:06;;;;;;;10.90;1.65;;;;;;;21.54;34.78;98906.56;16118659;19;132488;-46
2023/03/09 20:30:28;;;;;;;10.38;1.88;;;;;;;21.52;34.95;98891.00;16118436;19;129782;-44
2023/03/09 20:35:54;;;;;;;5.38;1.13;;;;;;;21.46;35.05;98888.63;16120210;19;131027;-44
2023/03/09 20:41:18;;;;;;;6.70;1.52;;;;;;;21.34;35.35;98883.59;16126553;19;131623;-43
2023/03/09 20:46:40;;;;;;;6.20;1.60;;;;;;;21.16;35.44;98864.00;16118857;19;129330;-47
2023/03/09 20:52:02;;;;;;;7.13;1.00;;;;;;;21.10;35.19;98865.25;16118254;19;129929;-46
2023/03/09 20:57:28;;;;;;;5.25;1.30;;;;;;;21.13;35.17;98836.81;16115098;19;129714;-47
2023/03/09 21:02:51;;;;;;;9.05;1.23;;;;;;;21.22;35.46;98828.56;16119457;19;129471;-47
2023/03/09 21:08:12;;;;;;;2.92;1.20;;;;;;;21.39;35.23;98827.88;16122951;19;130626;-47
2023/03/09 21:13:36;;;;;;;6.45;1.30;;;;;;;21.63;34.97;98821.97;16117935;19;129211;-50
2023/03/09 21:18:58;;;;;;;4.45;0.95;;;;;;;21.79;34.75;98807.66;16120059;19;130547;-48
2023/03/09 21:24:20;;;;;;;5.32;1.55;;;;;;;21.86;34.86;98791.31;16115442;19;130045;-51
2023/03/09 21:29:41;;;;;;;12.15;1.38;;;;;;;21.92;34.92;98778.06;16109402;19;131454;-48
2023/03/09 21:35:04;;;;;;;5.22;1.52;;;;;;;21.95;34.79;98749.59;16108496;19;130941;-48
2023/03/09 21:40:26;;;;;;;11.32;1.20;;;;;;;21.92;34.58;98744.69;16108696;19;129971;-50
2023/03/09 21:45:52;;;;;;;3.40;1.05;;;;;;;21.81;34.52;98722.69;16113126;19;131431;-48
2023/03/09 21:51:14;;;;;;;6.13;1.33;;;;;;;21.69;34.38;98705.78;16112914;19;129480;-45
2023/03/09 21:56:37;;;;;;;3.60;1.00;;;;;;;21.53;34.58;98688.72;16116769;19;134531;-48
2023/03/09 22:01:59;;;;;;;7.85;1.13;;;;;;;21.37;34.47;98663.25;16111219;19;129407;-46
2023/03/09 22:07:21;;;;;;;7.32;1.10;;;;;;;21.22;34.90;98653.38;16111922;19;130703;-46
2023/03/09 22:12:43;;;;;;;3.30;1.20;;;;;;;21.09;34.92;98635.63;16109987;19;130374;-49
2023/03/09 22:18:05;;;;;;;2.55;0.80;;;;;;;20.98;34.94;98620.38;16113015;19;130387;-45
2023/03/09 22:23:27;;;;;;;5.35;1.15;;;;;;;20.85;34.77;98597.09;16110680;19;129653;-47
2023/03/09 22:28:48;;;;;;;3.35;0.73;;;;;;;20.74;35.29;98590.94;16113093;19;129275;-47
2023/03/09 22:34:10;;;;;;;1.27;0.60;;;;;;;20.64;34.91;98602.31;16107975;19;129561;-45
2023/03/09 22:39:32;;;;;;;2.53;0.60;;;;;;;20.54;35.10;98637.56;16110663;19;130301;-46
2023/03/09 22:44:54;;;;;;;3.85;0.90;;;;;;;20.44;35.38;98665.53;16108564;19;129620;-48
2023/03/09 22:50:17;;;;;;;4.65;0.75;;;;;;;20.37;35.04;98677.09;16120187;19;134224;-49
2023/03/09 22:55:42;;;;;;;5.97;0.80;;;;;;;20.30;35.23;98679.47;16127714;19;130955;-48
2023/03/09 23:01:14;;;;;;;3.77;0.77;;;;;;;20.23;35.63;98662.44;16124295;19;129948;-49
2023/03/09 23:06:37;;;;;;;2.58;0.73;;;;;;;20.14;35.57;98657.59;16121828;19;132059;-46
2023/03/09 23:11:58;;;;;;;1.70;0.60;;;;;;;20.09;35.25;98670.78;16122172;19;131136;-47
2023/03/09 23:17:20;;;;;;;1.85;0.60;;;;;;;20.02;35.49;98668.44;16125392;19;130937;-45
2023/03/09 23:22:42;;;;;;;4.93;0.60;;;;;;;19.97;35.69;98669.34;16121665;19;129346;-49
2023/03/09 23:28:04;;;;;;;1.70;0.50;;;;;;;19.92;35.56;98666.69;16124009;19;130348;-49
2023/03/09 23:33:26;;;;;;;3.80;0.70;;;;;;;19.85;35.61;98666.25;16122852;19;129748;-48
2023/03/09 23:38:49;;;;;;;1.73;0.60;;;;;;;19.79;35.60;98667.50;16123626;19;130350;-47
2023/03/09 23:44:11;;;;;;;1.23;0.50;;;;;;;19.76;35.59;98670.91;16119229;19;131231;-47
2023/03/09 23:49:33;;;;;;;1.00;0.50;;;;;;;19.72;35.49;98664.31;16120132;19;129570;-47
2023/03/09 23:54:56;;;;;;;2.10;1.00;;;;;;;19.66;35.90;98664.44;16122341;19;130026;-49
